Hayfork, California
Current Conditions -  °F | °C
As of 9:35 PM on Sunday 21 Dec 2014 (Local Time) from KO54 Reporting Station
Broken Clouds Broken Clouds  
Wind Chill: 46°   Ceiling: 6000
Heat Index: 46°   Visibility: 10mi
Dew Point: 46°   Wind: 3mph
Humidity: 100%   Direction: 360°N
Pressure: 30.27"   Gusts: NA
Location:  40.55°N, 123.19°W
Report Text: KO54 220535Z AUTO 36003KT 10SM BKN060 08/08 A3027 RMK AO1
Loading
Personal Weather Stations






























Interactive Weather Map New forecast layout! Learn more

10-Day Weather Forecast

Advertisements
Track Severe Weather on mobile